createdAt,value
2018-04-26T00:00:32.409Z,983.92
2018-04-26T00:01:32.573Z,983.95
2018-04-26T00:02:32.732Z,983.96
2018-04-26T00:03:53.890Z,983.97
2018-04-26T00:04:33.052Z,983.93
2018-04-26T00:05:33.217Z,983.95
2018-04-26T00:06:33.377Z,983.93
2018-04-26T00:07:33.537Z,983.91
2018-04-26T00:08:33.709Z,983.93
2018-04-26T00:09:33.873Z,983.92
2018-04-26T00:10:34.036Z,983.89
2018-04-26T00:11:34.199Z,983.87
2018-04-26T00:12:34.367Z,983.90
2018-04-26T00:13:34.533Z,983.88
2018-04-26T00:14:34.703Z,983.83
2018-04-26T00:15:34.867Z,983.84
2018-04-26T00:16:35.029Z,983.85
2018-04-26T00:17:35.202Z,983.89
2018-04-26T00:18:35.368Z,983.86
2018-04-26T00:19:35.530Z,983.88
2018-04-26T00:20:35.706Z,983.87
2018-04-26T00:21:35.884Z,983.88
2018-04-26T00:22:36.037Z,983.91
2018-04-26T00:23:36.207Z,983.92
2018-04-26T00:24:36.372Z,983.93
2018-04-26T00:25:36.534Z,983.99
2018-04-26T00:26:36.708Z,983.99
2018-04-26T00:27:36.875Z,984.02
2018-04-26T00:28:37.045Z,984.04
2018-04-26T00:29:37.206Z,984.06
2018-04-26T00:30:37.366Z,984.01
2018-04-26T00:31:37.537Z,984.01
2018-04-26T00:32:37.697Z,983.97
2018-04-26T00:33:37.871Z,983.97
2018-04-26T00:34:38.037Z,983.93
2018-04-26T00:35:38.209Z,983.96
2018-04-26T00:36:38.375Z,983.93
2018-04-26T00:37:38.543Z,983.91
2018-04-26T00:38:38.704Z,983.90
2018-04-26T00:39:38.870Z,983.89
2018-04-26T00:40:39.032Z,983.95
2018-04-26T00:41:39.206Z,983.95
2018-04-26T00:42:39.381Z,983.91
2018-04-26T00:43:39.543Z,983.93
2018-04-26T00:44:39.711Z,983.92
2018-04-26T00:45:39.876Z,983.93
2018-04-26T00:46:40.043Z,983.93
2018-04-26T00:47:40.206Z,983.89
2018-04-26T00:48:40.456Z,983.90
2018-04-26T00:49:40.551Z,983.91
2018-04-26T00:50:40.718Z,983.86
2018-04-26T00:51:40.879Z,983.91
2018-04-26T00:52:41.051Z,983.95
2018-04-26T00:53:41.221Z,983.94
2018-04-26T00:54:41.383Z,983.91
2018-04-26T00:55:41.548Z,983.95
2018-04-26T00:56:41.712Z,983.91
2018-04-26T00:57:41.885Z,983.95
2018-04-26T00:58:42.038Z,983.94
2018-04-26T00:59:42.211Z,983.97
2018-04-26T01:00:42.374Z,983.92
2018-04-26T01:01:42.536Z,983.96
2018-04-26T01:02:42.706Z,984.02
2018-04-26T01:03:42.867Z,984.11
2018-04-26T01:04:43.039Z,984.10
2018-04-26T01:05:43.207Z,984.06
2018-04-26T01:06:43.370Z,984.09
2018-04-26T01:07:43.536Z,984.07
2018-04-26T01:08:43.699Z,984.04
2018-04-26T01:09:43.867Z,984.05
2018-04-26T01:10:44.033Z,984.03
2018-04-26T01:11:44.189Z,984.05
2018-04-26T01:12:44.360Z,984.09
2018-04-26T01:13:44.519Z,984.13
2018-04-26T01:14:44.686Z,984.12
2018-04-26T01:15:44.928Z,984.14
2018-04-26T01:16:45.022Z,984.12
2018-04-26T01:17:45.191Z,984.14
2018-04-26T01:18:45.356Z,984.18
2018-04-26T01:19:45.527Z,984.21
2018-04-26T01:20:45.692Z,984.25
2018-04-26T01:21:45.857Z,984.24
2018-04-26T01:22:46.028Z,984.28
2018-04-26T01:23:46.193Z,984.28
2018-04-26T01:24:46.366Z,984.24
2018-04-26T01:25:46.522Z,984.29
2018-04-26T01:26:46.692Z,984.29
2018-04-26T01:27:46.859Z,984.30
2018-04-26T01:28:47.016Z,984.26
2018-04-26T01:29:47.188Z,984.24
2018-04-26T01:30:47.360Z,984.24
2018-04-26T01:31:47.522Z,984.25
2018-04-26T01:32:47.688Z,984.23
2018-04-26T01:33:47.854Z,984.21
2018-04-26T01:34:48.020Z,984.17
2018-04-26T01:35:48.195Z,984.23
2018-04-26T01:36:48.361Z,984.19
2018-04-26T01:37:48.525Z,984.19
2018-04-26T01:38:48.692Z,984.15
2018-04-26T01:39:48.855Z,984.19
2018-04-26T01:40:49.027Z,984.16
2018-04-26T01:41:49.198Z,984.19
2018-04-26T01:42:49.351Z,984.22
2018-04-26T01:43:49.517Z,984.24
2018-04-26T01:44:49.678Z,984.28
2018-04-26T01:45:49.844Z,984.24
2018-04-26T01:46:50.019Z,984.28
2018-04-26T01:47:50.188Z,984.26
2018-04-26T01:48:50.358Z,984.27
2018-04-26T01:49:50.522Z,984.24
2018-04-26T01:50:50.688Z,984.28
2018-04-26T01:51:50.854Z,984.24
2018-04-26T01:52:51.021Z,984.24
2018-04-26T01:53:51.182Z,984.25
2018-04-26T01:54:51.349Z,984.24
2018-04-26T01:55:51.511Z,984.23
2018-04-26T01:56:51.679Z,984.25
2018-04-26T01:57:51.846Z,984.27
2018-04-26T01:58:52.007Z,984.25
2018-04-26T01:59:52.174Z,984.27
2018-04-26T02:00:52.340Z,984.28
2018-04-26T02:01:52.508Z,984.27
2018-04-26T02:02:52.677Z,984.26
2018-04-26T02:03:52.848Z,984.27
2018-04-26T02:04:53.011Z,984.26
2018-04-26T02:05:53.178Z,984.24
2018-04-26T02:06:53.345Z,984.27
2018-04-26T02:07:53.515Z,984.28
2018-04-26T02:08:53.674Z,984.22
2018-04-26T02:09:53.840Z,984.27
2018-04-26T02:10:54.001Z,984.30
2018-04-26T02:11:54.173Z,984.28
2018-04-26T02:12:54.329Z,984.30
2018-04-26T02:13:54.526Z,984.28
2018-04-26T02:14:54.689Z,984.30
2018-04-26T02:15:54.857Z,984.29
2018-04-26T02:16:55.021Z,984.26
2018-04-26T02:17:55.187Z,984.27
2018-04-26T02:18:55.360Z,984.24
2018-04-26T02:19:55.527Z,984.26
2018-04-26T02:20:55.687Z,984.27
2018-04-26T02:21:55.861Z,984.24
2018-04-26T02:22:56.029Z,984.24
2018-04-26T02:23:56.183Z,984.24
2018-04-26T02:24:56.347Z,984.24
2018-04-26T02:25:56.510Z,984.19
2018-04-26T02:26:56.676Z,984.22
2018-04-26T02:27:56.831Z,984.21
2018-04-26T02:28:56.993Z,984.23
2018-04-26T02:29:57.164Z,984.28
2018-04-26T02:30:57.325Z,984.25
2018-04-26T02:31:57.490Z,984.27
2018-04-26T02:32:57.659Z,984.29
2018-04-26T02:33:57.828Z,984.25
2018-04-26T02:34:57.996Z,984.27
2018-04-26T02:35:58.185Z,984.25
2018-04-26T02:36:58.317Z,984.26
2018-04-26T02:37:58.485Z,984.25
2018-04-26T02:38:58.650Z,984.23
2018-04-26T02:39:58.809Z,984.22
2018-04-26T02:40:58.976Z,984.22
2018-04-26T02:41:59.139Z,984.24
2018-04-26T02:42:59.308Z,984.23
2018-04-26T02:43:59.470Z,984.20
2018-04-26T02:44:59.632Z,984.21
2018-04-26T02:45:59.802Z,984.21
2018-04-26T02:46:59.965Z,984.18
2018-04-26T02:48:00.124Z,984.17
2018-04-26T02:49:00.297Z,984.19
2018-04-26T02:50:00.460Z,984.20
2018-04-26T02:51:00.627Z,984.14
2018-04-26T02:52:00.797Z,984.20
2018-04-26T02:53:00.958Z,984.20
2018-04-26T02:54:01.119Z,984.19
2018-04-26T02:55:01.284Z,984.20
2018-04-26T02:56:01.449Z,984.18
2018-04-26T02:57:01.619Z,984.19
2018-04-26T02:58:01.783Z,984.21
2018-04-26T02:59:01.951Z,984.23
2018-04-26T03:00:02.122Z,984.16
2018-04-26T03:01:02.288Z,984.21
2018-04-26T03:02:02.451Z,984.25
2018-04-26T03:03:02.614Z,984.21
2018-04-26T03:04:02.780Z,984.22
2018-04-26T03:05:02.941Z,984.27
2018-04-26T03:06:03.101Z,984.23
2018-04-26T03:07:03.265Z,984.24
2018-04-26T03:08:03.438Z,984.22
2018-04-26T03:09:03.595Z,984.23
2018-04-26T03:10:03.765Z,984.23
2018-04-26T03:11:03.929Z,984.22
2018-04-26T03:12:04.088Z,984.22
2018-04-26T03:13:04.255Z,984.22
2018-04-26T03:14:04.422Z,984.16
2018-04-26T03:15:04.589Z,984.20
2018-04-26T03:16:04.755Z,984.17
2018-04-26T03:17:04.915Z,984.17
2018-04-26T03:18:05.088Z,984.21
2018-04-26T03:19:05.249Z,984.26
2018-04-26T03:20:05.411Z,984.23
2018-04-26T03:21:05.579Z,984.24
2018-04-26T03:22:05.743Z,984.23
2018-04-26T03:23:05.901Z,984.21
2018-04-26T03:24:06.062Z,984.22
2018-04-26T03:25:06.223Z,984.27
2018-04-26T03:26:06.393Z,984.25
2018-04-26T03:27:06.553Z,984.21
2018-04-26T03:28:06.709Z,984.24
2018-04-26T03:29:06.885Z,984.23
2018-04-26T03:30:07.049Z,984.20
2018-04-26T03:31:07.295Z,984.26
2018-04-26T03:32:07.381Z,984.22
2018-04-26T03:33:07.548Z,984.24
2018-04-26T03:34:07.715Z,984.23
2018-04-26T03:35:07.880Z,984.28
2018-04-26T03:36:08.043Z,984.28
2018-04-26T03:37:08.208Z,984.22
2018-04-26T03:38:08.373Z,984.26
2018-04-26T03:39:08.530Z,984.24
2018-04-26T03:40:08.694Z,984.25
2018-04-26T03:41:08.860Z,984.26
2018-04-26T03:42:09.030Z,984.26
2018-04-26T03:43:09.202Z,984.29
2018-04-26T03:44:09.365Z,984.28
2018-04-26T03:45:09.536Z,984.33
2018-04-26T03:46:09.695Z,984.29
2018-04-26T03:47:09.855Z,984.32
2018-04-26T03:48:10.023Z,984.31
2018-04-26T03:49:10.188Z,984.35
2018-04-26T03:50:10.359Z,984.34
2018-04-26T03:51:10.528Z,984.34
2018-04-26T03:52:10.694Z,984.30
2018-04-26T03:53:10.865Z,984.28
2018-04-26T03:54:11.034Z,984.33
2018-04-26T03:55:11.194Z,984.36
2018-04-26T03:56:11.355Z,984.33
2018-04-26T03:57:11.520Z,984.32
2018-04-26T03:58:11.680Z,984.32
2018-04-26T03:59:11.845Z,984.32
2018-04-26T04:00:12.005Z,984.33
2018-04-26T04:01:12.169Z,984.33
2018-04-26T04:02:12.335Z,984.35
2018-04-26T04:03:12.499Z,984.37
2018-04-26T04:04:12.666Z,984.32
2018-04-26T04:05:12.822Z,984.33
2018-04-26T04:06:12.985Z,984.32
2018-04-26T04:07:13.139Z,984.36
2018-04-26T04:08:13.298Z,984.34
2018-04-26T04:09:13.465Z,984.34
2018-04-26T04:10:13.636Z,984.39
2018-04-26T04:11:13.797Z,984.39
2018-04-26T04:12:13.958Z,984.41
2018-04-26T04:13:14.130Z,984.43
2018-04-26T04:14:14.295Z,984.36
2018-04-26T04:15:14.476Z,984.36
2018-04-26T04:16:14.637Z,984.41
2018-04-26T04:17:14.802Z,984.40
2018-04-26T04:18:14.967Z,984.40
2018-04-26T04:19:15.134Z,984.46
2018-04-26T04:20:15.299Z,984.43
2018-04-26T04:21:15.467Z,984.46
2018-04-26T04:22:15.629Z,984.50
2018-04-26T04:23:15.795Z,984.47
2018-04-26T04:24:15.957Z,984.45
2018-04-26T04:25:16.123Z,984.46
2018-04-26T04:26:16.287Z,984.47
2018-04-26T04:27:16.455Z,984.48
2018-04-26T04:28:16.611Z,984.49
2018-04-26T04:29:16.776Z,984.43
2018-04-26T04:30:16.942Z,984.48
2018-04-26T04:31:17.106Z,984.50
2018-04-26T04:32:17.269Z,984.51
2018-04-26T04:33:17.439Z,984.52
2018-04-26T04:34:17.595Z,984.53
2018-04-26T04:35:17.837Z,984.56
2018-04-26T04:36:17.933Z,984.61
2018-04-26T04:37:18.095Z,984.63
2018-04-26T04:38:18.261Z,984.64
2018-04-26T04:39:18.429Z,984.67
2018-04-26T04:40:18.589Z,984.67
2018-04-26T04:41:18.755Z,984.65
2018-04-26T04:42:18.913Z,984.65
2018-04-26T04:43:19.083Z,984.66
2018-04-26T04:44:19.246Z,984.67
2018-04-26T04:45:19.489Z,984.71
2018-04-26T04:46:19.576Z,984.68
2018-04-26T04:47:19.738Z,984.74
2018-04-26T04:48:19.900Z,984.70
2018-04-26T04:49:20.072Z,984.73
2018-04-26T04:50:20.231Z,984.74
2018-04-26T04:51:20.396Z,984.80
2018-04-26T04:52:20.561Z,984.87
2018-04-26T04:53:20.728Z,984.88
2018-04-26T04:54:20.882Z,984.87
2018-04-26T04:55:21.042Z,984.93
2018-04-26T04:56:21.204Z,984.92
2018-04-26T04:57:21.364Z,984.94
2018-04-26T04:58:21.526Z,984.91
2018-04-26T04:59:21.695Z,984.95
2018-04-26T05:00:21.863Z,984.94
2018-04-26T05:01:22.026Z,984.97
2018-04-26T05:02:22.189Z,985.02
2018-04-26T05:03:22.356Z,985.07
2018-04-26T05:04:22.513Z,985.06
2018-04-26T05:05:22.680Z,985.05
2018-04-26T05:06:22.840Z,985.07
2018-04-26T05:07:23.056Z,985.05
2018-04-26T05:08:23.170Z,985.05
2018-04-26T05:09:23.335Z,985.02
2018-04-26T05:10:23.508Z,985.05
2018-04-26T05:11:23.668Z,985.07
2018-04-26T05:12:23.834Z,985.04
2018-04-26T05:13:23.993Z,985.12
2018-04-26T05:14:24.168Z,985.03
2018-04-26T05:15:24.335Z,985.07
2018-04-26T05:16:24.508Z,985.12
2018-04-26T05:17:24.665Z,985.09
2018-04-26T05:18:24.833Z,985.13
2018-04-26T05:19:25.034Z,985.14
2018-04-26T05:20:25.201Z,985.15
2018-04-26T05:21:25.368Z,985.13
2018-04-26T05:22:25.535Z,985.09
2018-04-26T05:23:25.702Z,985.11
2018-04-26T05:24:25.864Z,985.11
2018-04-26T05:25:26.039Z,985.12
2018-04-26T05:26:26.206Z,985.07
2018-04-26T05:27:26.369Z,985.09
2018-04-26T05:28:26.535Z,985.07
2018-04-26T05:29:26.704Z,985.06
2018-04-26T05:30:26.875Z,985.08
2018-04-26T05:31:27.045Z,985.09
2018-04-26T05:32:27.212Z,985.12
2018-04-26T05:33:27.390Z,985.12
2018-04-26T05:34:27.550Z,985.20
2018-04-26T05:35:27.721Z,985.14
2018-04-26T05:36:27.890Z,985.23
2018-04-26T05:37:28.055Z,985.17
2018-04-26T05:38:28.221Z,985.22
2018-04-26T05:39:28.385Z,985.20
2018-04-26T05:40:28.572Z,985.27
2018-04-26T05:41:28.715Z,985.30
2018-04-26T05:42:28.880Z,985.27
2018-04-26T05:43:29.043Z,985.30
2018-04-26T05:44:29.230Z,985.28
2018-04-26T05:45:29.389Z,985.34
2018-04-26T05:46:29.561Z,985.29
2018-04-26T05:47:29.725Z,985.34
2018-04-26T05:48:29.895Z,985.33
2018-04-26T05:49:30.057Z,985.35
2018-04-26T05:50:30.218Z,985.29
2018-04-26T05:51:30.386Z,985.34
2018-04-26T05:52:30.553Z,985.35
2018-04-26T05:53:30.713Z,985.30
2018-04-26T05:54:30.889Z,985.26
2018-04-26T05:55:31.046Z,985.28
2018-04-26T05:56:31.220Z,985.34
2018-04-26T05:57:31.387Z,985.31
2018-04-26T05:58:31.551Z,985.34
2018-04-26T05:59:31.721Z,985.33
2018-04-26T06:00:31.890Z,985.34
2018-04-26T06:01:32.055Z,985.29
2018-04-26T06:02:32.226Z,985.34
2018-04-26T06:03:32.483Z,985.46
2018-04-26T06:04:32.559Z,985.35
2018-04-26T06:05:32.738Z,985.45
2018-04-26T06:06:32.897Z,985.44
2018-04-26T06:07:33.068Z,985.44
2018-04-26T06:08:33.235Z,985.41
2018-04-26T06:09:33.402Z,985.54
2018-04-26T06:10:33.566Z,985.57
2018-04-26T06:11:33.738Z,985.50
2018-04-26T06:12:33.909Z,985.55
2018-04-26T06:13:34.071Z,985.58
2018-04-26T06:14:34.237Z,985.54
2018-04-26T06:15:34.401Z,985.53
2018-04-26T06:16:34.570Z,985.50
2018-04-26T06:17:34.738Z,985.46
2018-04-26T06:18:34.910Z,985.52
2018-04-26T06:19:35.078Z,985.53
2018-04-26T06:20:35.242Z,985.46
2018-04-26T06:21:35.406Z,985.56
2018-04-26T06:22:35.574Z,985.60
2018-04-26T06:23:35.741Z,985.57
2018-04-26T06:24:35.907Z,985.57
2018-04-26T06:25:36.079Z,985.57
2018-04-26T06:26:36.240Z,985.62
2018-04-26T06:27:36.405Z,985.56
2018-04-26T06:28:36.574Z,985.55
2018-04-26T06:29:36.741Z,985.57
2018-04-26T06:30:36.918Z,985.63
2018-04-26T06:31:37.083Z,985.67
2018-04-26T06:32:37.247Z,985.66
2018-04-26T06:33:37.422Z,985.71
2018-04-26T06:34:37.588Z,985.72
2018-04-26T06:35:37.757Z,985.66
2018-04-26T06:36:37.926Z,985.72
2018-04-26T06:37:38.088Z,985.72
2018-04-26T06:38:38.260Z,985.77
2018-04-26T06:41:11.054Z,985.85
2018-04-26T06:42:10.754Z,985.83
2018-04-26T06:43:10.889Z,985.90
2018-04-26T06:44:11.054Z,985.96
2018-04-26T06:45:11.221Z,985.90
2018-04-26T06:46:11.390Z,985.96
2018-04-26T06:47:11.551Z,985.98
2018-04-26T06:48:11.721Z,985.91
2018-04-26T06:49:11.894Z,985.92
2018-04-26T06:50:12.066Z,985.94
2018-04-26T06:51:12.229Z,985.91
2018-04-26T06:52:12.394Z,985.82
2018-04-26T06:53:12.558Z,985.89
2018-04-26T06:54:12.729Z,985.88
2018-04-26T06:55:12.894Z,985.83
2018-04-26T06:56:13.067Z,985.81
2018-04-26T06:57:13.237Z,985.81
2018-04-26T06:58:13.405Z,985.79
2018-04-26T06:59:13.571Z,985.89
2018-04-26T07:00:13.739Z,985.84
2018-04-26T07:01:13.911Z,985.92
2018-04-26T07:02:14.074Z,985.91
2018-04-26T07:03:14.254Z,985.95
2018-04-26T07:04:14.416Z,985.94
2018-04-26T07:05:14.581Z,985.92
2018-04-26T07:06:14.750Z,985.86
2018-04-26T07:07:14.928Z,985.88
2018-04-26T07:08:15.083Z,985.96
2018-04-26T07:09:15.253Z,985.95
2018-04-26T07:10:15.414Z,986.00
2018-04-26T07:11:15.595Z,985.99
2018-04-26T07:12:15.756Z,986.03
2018-04-26T07:13:15.923Z,985.96
2018-04-26T07:14:16.093Z,986.03
2018-04-26T07:15:16.260Z,986.06
2018-04-26T07:16:16.423Z,986.14
2018-04-26T07:17:16.588Z,986.17
2018-04-26T07:18:16.755Z,986.17
2018-04-26T07:19:16.918Z,986.17
2018-04-26T07:20:17.093Z,986.16
2018-04-26T07:21:17.251Z,986.14
2018-04-26T07:22:17.418Z,986.11
2018-04-26T07:23:17.588Z,986.06
2018-04-26T07:24:17.760Z,986.16
2018-04-26T07:25:17.923Z,986.16
2018-04-26T07:26:18.087Z,986.15
2018-04-26T07:27:18.252Z,986.16
2018-04-26T07:28:18.419Z,986.27
2018-04-26T07:29:18.590Z,986.15
2018-04-26T07:30:18.757Z,986.19
2018-04-26T07:31:18.931Z,986.15
2018-04-26T07:32:19.101Z,986.20
2018-04-26T07:33:19.261Z,986.27
2018-04-26T07:34:19.428Z,986.24
2018-04-26T07:35:19.598Z,986.23
2018-04-26T07:36:19.767Z,986.24
2018-04-26T07:38:53.563Z,986.24
2018-04-26T07:39:53.224Z,986.13
2018-04-26T07:40:53.399Z,986.12
2018-04-26T07:41:53.756Z,986.14
2018-04-26T07:42:53.935Z,986.23
2018-04-26T07:43:54.080Z,986.33
2018-04-26T07:44:54.122Z,986.22
2018-04-26T07:45:54.409Z,986.23
2018-04-26T07:46:54.658Z,986.25
2018-04-26T07:47:54.939Z,986.31
2018-04-26T07:48:55.655Z,986.34
2018-04-26T07:49:54.991Z,986.33
2018-04-26T07:50:56.149Z,986.26
2018-04-26T07:51:55.499Z,986.26
2018-04-26T07:52:55.610Z,986.32
2018-04-26T07:53:55.740Z,986.41
2018-04-26T07:54:56.030Z,986.18
2018-04-26T07:55:55.957Z,986.33
2018-04-26T07:56:55.931Z,986.31
2018-04-26T07:57:56.021Z,986.30
2018-04-26T07:58:56.186Z,986.24
2018-04-26T07:59:56.352Z,986.34
2018-04-26T08:00:56.530Z,986.33
2018-04-26T08:01:56.893Z,986.25
2018-04-26T08:02:57.120Z,986.41
2018-04-26T08:03:57.125Z,986.33
2018-04-26T08:04:57.351Z,986.33
2018-04-26T08:05:57.574Z,986.30
2018-04-26T08:06:57.591Z,986.40
2018-04-26T08:07:57.782Z,986.37
2018-04-26T08:08:58.144Z,986.42
2018-04-26T08:09:58.072Z,986.48
2018-04-26T08:10:58.276Z,986.51
2018-04-26T08:11:58.565Z,986.47
2018-04-26T08:12:58.812Z,986.47
2018-04-26T08:13:58.913Z,986.47
2018-04-26T08:14:58.900Z,986.45
2018-04-26T08:15:59.249Z,986.51
2018-04-26T08:16:59.444Z,986.64
2018-04-26T08:17:59.636Z,986.64
2018-04-26T08:18:59.667Z,986.59
2018-04-26T08:19:59.809Z,986.44
2018-04-26T08:21:00.140Z,986.58
2018-04-26T08:22:00.243Z,986.64
2018-04-26T08:23:00.304Z,986.63
2018-04-26T08:24:00.640Z,986.83
2018-04-26T08:25:00.655Z,986.69
2018-04-26T08:26:00.860Z,986.72
2018-04-26T08:27:00.922Z,986.81
2018-04-26T08:28:01.271Z,986.93
2018-04-26T08:29:01.437Z,986.88
2018-04-26T08:30:01.523Z,986.88
2018-04-26T08:31:01.640Z,986.78
2018-04-26T08:32:01.809Z,986.83
2018-04-26T08:33:01.988Z,986.93
2018-04-26T08:34:02.191Z,986.93
2018-04-26T08:35:02.199Z,986.88
2018-04-26T08:36:02.416Z,986.88
2018-04-26T08:37:02.638Z,986.98
2018-04-26T08:38:02.676Z,986.96
2018-04-26T08:39:03.643Z,986.79
2018-04-26T08:40:02.960Z,986.91
2018-04-26T08:41:03.274Z,986.81
2018-04-26T08:42:03.512Z,986.98
2018-04-26T08:43:03.738Z,986.80
2018-04-26T08:44:03.737Z,986.97
2018-04-26T08:45:04.059Z,987.02
2018-04-26T08:46:04.332Z,987.11
2018-04-26T08:47:04.317Z,987.08
2018-04-26T08:48:04.494Z,987.12
2018-04-26T08:49:04.885Z,987.05
2018-04-26T08:50:04.959Z,987.07
2018-04-26T08:51:05.230Z,987.05
2018-04-26T08:52:05.388Z,987.09
2018-04-26T08:53:05.592Z,987.11
2018-04-26T08:54:05.729Z,986.77
2018-04-26T08:55:05.805Z,987.10
2018-04-26T08:56:06.034Z,986.88
2018-04-26T08:57:06.104Z,986.98
2018-04-26T08:58:06.418Z,987.05
2018-04-26T08:59:06.589Z,987.07
2018-04-26T09:00:06.801Z,987.15
2018-04-26T09:01:06.875Z,987.05
2018-04-26T09:02:07.162Z,987.02
2018-04-26T09:03:07.212Z,987.14
2018-04-26T09:04:07.552Z,987.16
2018-04-26T09:06:40.731Z,987.11
2018-04-26T09:07:40.884Z,987.08
2018-04-26T09:08:41.054Z,987.13
2018-04-26T09:09:41.227Z,987.21
2018-04-26T09:10:41.422Z,987.17
2018-04-26T09:11:41.591Z,987.14
2018-04-26T09:12:41.764Z,987.33
2018-04-26T09:13:41.938Z,987.27
2018-04-26T09:14:42.112Z,987.40
2018-04-26T09:15:42.298Z,987.30
2018-04-26T09:16:42.464Z,987.45
2018-04-26T09:17:42.645Z,987.24
2018-04-26T09:18:42.813Z,987.20
2018-04-26T09:19:43.028Z,987.24
2018-04-26T09:20:43.193Z,987.25
2018-04-26T09:21:43.369Z,987.25
2018-04-26T09:22:43.540Z,987.09
2018-04-26T09:23:43.715Z,987.11
2018-04-26T09:24:43.889Z,987.10
2018-04-26T09:25:44.073Z,986.95
2018-04-26T09:26:44.249Z,986.99
2018-04-26T09:27:44.408Z,987.05
2018-04-26T09:28:44.588Z,987.26
2018-04-26T09:29:44.766Z,987.42
2018-04-26T09:30:44.938Z,987.35
2018-04-26T09:31:45.110Z,987.38
2018-04-26T09:32:45.284Z,987.01
2018-04-26T09:33:45.540Z,987.17
2018-04-26T09:34:45.643Z,987.41
2018-04-26T09:35:45.824Z,987.00
2018-04-26T09:36:45.996Z,987.20
2018-04-26T09:37:46.173Z,987.55
2018-04-26T09:38:46.421Z,987.35
2018-04-26T09:39:46.525Z,987.45
2018-04-26T09:40:46.692Z,987.32
2018-04-26T09:41:46.866Z,987.43
2018-04-26T09:42:47.036Z,987.19
2018-04-26T09:43:47.217Z,987.54
2018-04-26T09:44:47.388Z,987.17
2018-04-26T09:45:47.566Z,987.14
2018-04-26T09:46:47.745Z,987.47
2018-04-26T09:47:47.918Z,987.08
2018-04-26T09:48:48.095Z,987.05
2018-04-26T09:49:48.271Z,987.47
2018-04-26T09:50:48.453Z,987.07
2018-04-26T09:51:48.624Z,987.02
2018-04-26T09:52:48.815Z,987.00
2018-04-26T09:53:48.996Z,986.98
2018-04-26T09:54:49.170Z,987.04
2018-04-26T09:55:49.347Z,987.22
2018-04-26T09:56:49.523Z,987.20
2018-04-26T09:57:49.700Z,987.29
2018-04-26T09:58:49.881Z,987.23
2018-04-26T09:59:50.062Z,987.21
2018-04-26T10:00:50.241Z,987.24
2018-04-26T10:01:50.537Z,987.23
2018-04-26T10:02:50.589Z,987.37
2018-04-26T10:03:50.757Z,987.70
2018-04-26T10:04:50.934Z,987.77
2018-04-26T10:05:51.103Z,987.78
2018-04-26T10:06:51.276Z,987.40
2018-04-26T10:07:51.449Z,987.31
2018-04-26T10:08:51.645Z,987.37
2018-04-26T10:09:51.791Z,987.41
2018-04-26T10:10:51.968Z,987.49
2018-04-26T10:11:52.137Z,987.43
2018-04-26T10:12:52.308Z,987.43
2018-04-26T10:13:52.487Z,987.53
2018-04-26T10:14:52.650Z,987.62
2018-04-26T10:15:52.818Z,987.70
2018-04-26T10:16:53.002Z,987.68
2018-04-26T10:17:53.158Z,987.66
2018-04-26T10:18:53.340Z,987.71
2018-04-26T10:19:53.508Z,987.65
2018-04-26T10:20:53.678Z,987.65
2018-04-26T10:21:53.852Z,987.65
2018-04-26T10:22:54.020Z,987.72
2018-04-26T10:23:54.194Z,987.73
2018-04-26T10:24:54.361Z,987.78
2018-04-26T10:25:54.523Z,987.83
2018-04-26T10:26:54.697Z,987.83
2018-04-26T10:27:54.866Z,987.93
2018-04-26T10:28:55.039Z,987.94
2018-04-26T10:29:55.210Z,987.94
2018-04-26T10:30:55.377Z,988.16
2018-04-26T10:31:55.557Z,987.94
2018-04-26T10:32:55.727Z,987.79
2018-04-26T10:33:55.896Z,987.90
2018-04-26T10:34:56.069Z,988.01
2018-04-26T10:35:56.230Z,988.44
2018-04-26T10:36:56.401Z,988.49
2018-04-26T10:37:57.197Z,988.21
2018-04-26T10:38:56.747Z,988.09
2018-04-26T10:39:56.925Z,987.94
2018-04-26T10:40:57.088Z,988.48
2018-04-26T10:41:57.266Z,987.92
2018-04-26T10:42:57.439Z,987.94
2018-04-26T10:43:57.601Z,987.92
2018-04-26T10:44:57.772Z,988.29
2018-04-26T10:45:57.939Z,988.29
2018-04-26T10:46:58.109Z,988.27
2018-04-26T10:47:58.277Z,987.97
2018-04-26T10:48:58.446Z,987.89
2018-04-26T10:49:58.622Z,987.82
2018-04-26T10:50:58.788Z,987.87
2018-04-26T10:51:58.965Z,987.85
2018-04-26T10:52:59.206Z,987.89
2018-04-26T10:53:59.308Z,988.03
2018-04-26T10:54:59.480Z,987.98
2018-04-26T10:55:59.656Z,987.88
2018-04-26T10:56:59.833Z,987.89
2018-04-26T10:58:00.008Z,987.86
2018-04-26T10:59:00.175Z,987.84
2018-04-26T11:00:00.365Z,987.75
2018-04-26T11:01:00.529Z,987.72
2018-04-26T11:02:00.705Z,987.77
2018-04-26T11:03:00.891Z,987.76
2018-04-26T11:04:01.056Z,987.81
2018-04-26T11:05:01.223Z,987.81
2018-04-26T11:06:01.397Z,987.88
2018-04-26T11:07:01.570Z,988.11
2018-04-26T11:08:01.735Z,987.91
2018-04-26T11:09:01.908Z,987.89
2018-04-26T11:10:02.075Z,988.38
2018-04-26T11:11:02.250Z,988.48
2018-04-26T11:12:02.419Z,988.56
2018-04-26T11:13:02.590Z,988.56
2018-04-26T11:14:02.755Z,988.61
2018-04-26T11:15:02.934Z,988.72
2018-04-26T11:16:03.099Z,988.77
2018-04-26T11:17:03.278Z,988.69
2018-04-26T11:18:03.452Z,988.65
2018-04-26T11:19:03.623Z,988.71
2018-04-26T11:20:03.799Z,988.69
2018-04-26T11:21:03.965Z,988.72
2018-04-26T11:22:04.140Z,988.73
2018-04-26T11:23:04.314Z,988.77
2018-04-26T11:24:04.536Z,988.73
2018-04-26T11:25:04.685Z,988.75
2018-04-26T11:26:04.860Z,988.74
2018-04-26T11:27:05.036Z,988.76
2018-04-26T11:28:05.214Z,988.80
2018-04-26T11:29:05.404Z,988.77
2018-04-26T11:30:05.669Z,988.17
2018-04-26T11:31:05.918Z,988.46
2018-04-26T11:32:06.004Z,987.83
2018-04-26T11:33:06.196Z,988.89
2018-04-26T11:34:06.383Z,987.78
2018-04-26T11:35:06.563Z,988.41
2018-04-26T11:36:06.763Z,988.91
2018-04-26T11:37:06.936Z,988.84
2018-04-26T11:38:07.121Z,988.90
2018-04-26T11:39:07.307Z,989.01
2018-04-26T11:40:07.538Z,987.68
2018-04-26T11:41:07.672Z,987.74
2018-04-26T11:42:07.861Z,988.94
2018-04-26T11:43:08.054Z,988.82
2018-04-26T11:44:08.247Z,987.74
2018-04-26T11:45:08.428Z,987.68
2018-04-26T11:47:00.692Z,988.86
2018-04-26T11:48:00.882Z,988.96
2018-04-26T11:49:01.066Z,988.86
2018-04-26T11:50:01.251Z,988.89
2018-04-26T11:51:01.427Z,989.01
2018-04-26T11:52:01.612Z,988.92
2018-04-26T11:53:01.801Z,988.97
2018-04-26T11:54:01.981Z,987.72
2018-04-26T11:55:02.257Z,988.97
2018-04-26T11:56:02.289Z,988.89
2018-04-26T11:57:02.477Z,988.96
2018-04-26T11:58:02.663Z,988.76
2018-04-26T11:59:02.851Z,988.63
2018-04-26T12:00:03.035Z,987.69
2018-04-26T12:01:03.216Z,987.64
2018-04-26T12:02:03.433Z,987.56
2018-04-26T12:03:03.619Z,987.63
2018-04-26T12:04:03.873Z,987.52
2018-04-26T12:05:03.987Z,987.50
2018-04-26T12:06:04.172Z,987.47
2018-04-26T12:07:04.355Z,987.51
2018-04-26T12:08:04.532Z,987.50
2018-04-26T12:09:04.712Z,987.56
2018-04-26T12:10:04.897Z,987.55
2018-04-26T12:11:05.073Z,987.57
2018-04-26T12:12:05.247Z,987.39
2018-04-26T12:13:05.421Z,987.56
2018-04-26T12:14:05.602Z,987.66
2018-04-26T12:15:05.777Z,987.68
2018-04-26T12:16:05.945Z,987.76
2018-04-26T12:17:06.131Z,988.65
2018-04-26T12:18:06.304Z,988.75
2018-04-26T12:19:06.481Z,988.57
2018-04-26T12:20:06.653Z,987.84
2018-04-26T12:21:06.836Z,987.91
2018-04-26T12:22:07.014Z,987.85
2018-04-26T12:23:07.183Z,988.17
2018-04-26T12:24:07.383Z,987.70
2018-04-26T12:25:07.537Z,987.67
2018-04-26T12:26:07.710Z,987.68
2018-04-26T12:27:07.886Z,987.66
2018-04-26T12:28:08.059Z,987.62
2018-04-26T12:29:08.235Z,987.63
2018-04-26T12:30:08.412Z,987.74
2018-04-26T12:31:08.602Z,987.62
2018-04-26T12:32:08.779Z,987.69
2018-04-26T12:33:08.954Z,987.74
2018-04-26T12:34:09.131Z,987.65
2018-04-26T12:35:09.319Z,987.63
2018-04-26T12:36:09.482Z,987.63